»·PEaware :: TEXAN30 KRND-KSKF

TEXAN30 :: KRND-KSKF

FLIGHT INFORMATION

Flight Status: Arrived
Operator: Unknown
More flights by this operator :: More flights under this callsign
Pilot: Indie I. (23351)
Aircraft: BEECH AIRCRAFT T-6A TEXAN
(TEX2)
More flights by this aircraft type
Origin: KRND Randolph AFB
United States
Destination: KSKF Lackland AFB Kelly Fld Annex
United States
More flights between these airports :: More routes between these airports
Route: +KRND SAT230020 TWEE/D0+25 KRND
File this flight plan on PilotEdge
Remarks: 33L RATLR TRANSITION
Altitude:
(Current/Filed)
13,000ft
Speed:
(Current/Filed)
200kts
Departed: 27-Aug-20 06:39 AM
Arrived: 27-Aug-20 07:31 AM
Distance/Time
Traveled:
18nm/0:51
Distance/Time
To Go:
Arrived

Flight Plot

Page will automatically refresh every two minutes.

Flight plan parsing failed; only flown route is shown


Map Options




Map Legend


Flown Route
Filed Route
Departure Airport
Arrival Airport
Navaid (VOR, NDB)
Fix

Horizontal Profiles

Position Reports

Time Latitude Longitude Heading Altitude Ground
Speed
27-Aug-20 06:23 29.530988 -98.288029 239 765ft 0kts
27-Aug-20 06:24 29.530987 -98.288032 239 765ft 0kts
27-Aug-20 06:25 29.530770 -98.288222 180 765ft 6kts
27-Aug-20 06:26 29.529416 -98.287444 149 765ft 1kts
27-Aug-20 06:27 29.526715 -98.285677 150 765ft 28kts
27-Aug-20 06:28 29.523234 -98.283374 150 765ft 2kts
27-Aug-20 06:29 29.521981 -98.282443 154 765ft 1kts
27-Aug-20 06:30 29.519654 -98.280985 156 765ft 14kts
27-Aug-20 06:31 29.517510 -98.279606 151 765ft 19kts
27-Aug-20 06:32 29.515509 -98.278678 198 765ft 0kts
27-Aug-20 06:33 29.515459 -98.278771 269 765ft 0kts
27-Aug-20 06:34 29.515459 -98.278774 269 765ft 0kts
27-Aug-20 06:36 29.515459 -98.278778 270 765ft 0kts
27-Aug-20 06:37 29.515459 -98.278790 274 765ft 0kts
27-Aug-20 06:38 29.515709 -98.280456 326 765ft 6kts
27-Aug-20 06:39 29.545174 -98.304948 270 1376ft 205kts
27-Aug-20 06:40 29.505426 -98.320112 146 1856ft 212kts
27-Aug-20 06:41 29.453736 -98.282712 147 2019ft 215kts
27-Aug-20 06:42 29.400093 -98.252144 161 2970ft 223kts
27-Aug-20 06:43 29.345139 -98.232661 164 7106ft 181kts
27-Aug-20 06:44 29.292792 -98.219518 173 10668ft 195kts
27-Aug-20 06:45 29.238670 -98.203784 159 12915ft 222kts
27-Aug-20 06:46 29.178641 -98.189293 236 12983ft 254kts
27-Aug-20 06:47 29.199739 -98.254768 344 12097ft 221kts
27-Aug-20 06:48 29.253788 -98.250668 24 11208ft 193kts
27-Aug-20 06:49 29.305373 -98.234506 351 10773ft 206kts
27-Aug-20 06:50 29.361160 -98.243702 342 11611ft 200kts
27-Aug-20 06:51 29.367564 -98.297413 240 11160ft 213kts
27-Aug-20 06:52 29.333641 -98.352615 236 11247ft 199kts
27-Aug-20 06:52 29.340485 -98.403553 298 12521ft 219kts
27-Aug-20 06:54 29.376193 -98.479574 299 13176ft 243kts
27-Aug-20 06:54 29.404220 -98.538717 299 13020ft 260kts
27-Aug-20 06:55 29.439237 -98.611413 299 13098ft 261kts
27-Aug-20 06:57 29.481821 -98.696835 299 13011ft 267kts
27-Aug-20 06:57 29.500845 -98.764053 282 13017ft 267kts
27-Aug-20 06:58 29.492080 -98.845198 253 13266ft 257kts
27-Aug-20 07:00 29.521052 -98.929717 295 16500ft 220kts
27-Aug-20 07:00 29.544569 -98.986171 282 17122ft 255kts
27-Aug-20 07:01 29.534727 -98.997257 48 17234ft 268kts
27-Aug-20 07:02 29.580663 -98.941569 47 17060ft 218kts
27-Aug-20 07:03 29.600327 -98.876600 90 17364ft 160kts
27-Aug-20 07:04 29.563959 -98.844150 79 17750ft 245kts
27-Aug-20 07:05 29.564954 -98.841459 86 17585ft 214kts
27-Aug-20 07:06 29.574048 -98.812838 40 17210ft 270kts
27-Aug-20 07:07 29.600330 -98.872241 257 17399ft 294kts
27-Aug-20 07:08 29.578645 -98.833544 170 16104ft 299kts
27-Aug-20 07:09 29.537353 -98.894235 277 17180ft 288kts
27-Aug-20 07:10 29.562063 -98.979663 306 17730ft 269kts
27-Aug-20 07:11 29.627075 -98.993136 44 15924ft 249kts
27-Aug-20 07:12 29.620296 -98.923438 132 14789ft 240kts
27-Aug-20 07:13 29.596120 -98.849564 74 14193ft 264kts
27-Aug-20 07:14 29.623287 -98.769645 65 14109ft 268kts
27-Aug-20 07:15 29.648807 -98.805481 266 13964ft 265kts
27-Aug-20 07:16 29.649458 -98.890469 273 13953ft 267kts
27-Aug-20 07:17 29.650876 -98.975973 266 13974ft 269kts
27-Aug-20 07:18 29.592688 -98.977268 146 13989ft 267kts
27-Aug-20 07:19 29.536047 -98.933851 89 10711ft 263kts
27-Aug-20 07:20 29.555756 -98.863482 69 5346ft 214kts
27-Aug-20 07:21 29.574465 -98.799869 78 3364ft 198kts
27-Aug-20 07:22 29.586227 -98.746327 74 3054ft 221kts
27-Aug-20 07:23 29.586227 -98.746327 74 3054ft 221kts
27-Aug-20 07:24 29.591884 -98.688348 93 3180ft 221kts
27-Aug-20 07:25 29.552931 -98.643290 164 3536ft 206kts
27-Aug-20 07:26 29.516167 -98.629934 159 3065ft 193kts
27-Aug-20 07:27 29.479133 -98.615494 161 2351ft 197kts
27-Aug-20 07:28 29.438221 -98.601023 163 1472ft 141kts
27-Aug-20 07:29 29.404558 -98.588407 162 860ft 118kts
27-Aug-20 07:30 29.389187 -98.582808 155 694ft 31kts
27-Aug-20 07:31 29.384131 -98.581325 198 694ft 6kts

Navigation Log

Ident Type
Flight plan parsing failed, navigation log unavailable